createdAt,value
2017-03-30T00:01:06.074Z,14.05
2017-03-30T00:02:14.803Z,14.05
2017-03-30T00:03:23.692Z,14.08
2017-03-30T00:04:32.273Z,14.01
2017-03-30T00:05:41.175Z,14.08
2017-03-30T00:06:50.081Z,14.12
2017-03-30T00:07:58.741Z,14.11
2017-03-30T00:09:07.360Z,14.01
2017-03-30T00:10:16.025Z,14.03
2017-03-30T00:11:24.917Z,14.03
2017-03-30T00:12:33.489Z,14.03
2017-03-30T00:13:42.378Z,14.09
2017-03-30T00:14:51.472Z,14.15
2017-03-30T00:16:00.416Z,14.03
2017-03-30T00:17:09.042Z,14.13
2017-03-30T00:18:17.931Z,14.01
2017-03-30T00:19:26.823Z,14.03
2017-03-30T00:20:35.440Z,14.12
2017-03-30T00:21:44.333Z,14.08
2017-03-30T00:22:53.224Z,14.16
2017-03-30T00:24:02.803Z,14.21
2017-03-30T00:25:12.004Z,14.19
2017-03-30T00:26:20.891Z,13.99
2017-03-30T00:27:29.882Z,14.12
2017-03-30T00:28:38.771Z,14.15
2017-03-30T00:29:47.401Z,14.03
2017-03-30T00:30:56.025Z,14.01
2017-03-30T00:32:04.915Z,14.12
2017-03-30T00:33:13.487Z,14.19
2017-03-30T00:34:22.381Z,14.12
2017-03-30T00:35:31.365Z,14.09
2017-03-30T00:36:40.569Z,14.11
2017-03-30T00:37:49.456Z,14.12
2017-03-30T00:38:58.038Z,14.13
2017-03-30T00:40:06.927Z,14.08
2017-03-30T00:41:15.899Z,14.05
2017-03-30T00:42:24.785Z,14.09
2017-03-30T00:43:33.357Z,14.13
2017-03-30T00:44:41.939Z,14.16
2017-03-30T00:45:50.828Z,14.15
2017-03-30T00:46:59.736Z,14.12
2017-03-30T00:48:08.623Z,14.12
2017-03-30T00:49:17.192Z,14.06
2017-03-30T00:50:26.254Z,14.01
2017-03-30T00:51:34.829Z,14.12
2017-03-30T00:52:43.714Z,14.01
2017-03-30T00:53:52.964Z,14.02
2017-03-30T00:55:01.888Z,14.02
2017-03-30T00:56:10.778Z,14.02
2017-03-30T00:57:19.663Z,14.05
2017-03-30T00:58:28.347Z,14.05
2017-03-30T00:59:37.867Z,14.08
2017-03-30T01:00:47.067Z,14.02
2017-03-30T01:01:56.719Z,14.03
2017-03-30T01:03:05.630Z,14.01
2017-03-30T01:04:14.516Z,14.05
2017-03-30T01:05:23.420Z,13.95
2017-03-30T01:06:32.308Z,13.93
2017-03-30T01:07:41.519Z,14.05
2017-03-30T01:08:50.098Z,13.95
2017-03-30T01:09:58.667Z,13.93
2017-03-30T01:11:07.691Z,13.99
2017-03-30T01:12:16.264Z,13.94
2017-03-30T01:13:25.466Z,13.88
2017-03-30T01:14:34.123Z,13.9
2017-03-30T01:15:42.797Z,13.93
2017-03-30T01:16:52.008Z,13.93
2017-03-30T01:18:01.219Z,13.87
2017-03-30T01:19:09.786Z,13.91
2017-03-30T01:20:18.771Z,13.94
2017-03-30T01:21:27.352Z,13.97
2017-03-30T01:22:37.007Z,13.88
2017-03-30T01:23:45.899Z,13.99
2017-03-30T01:24:55.230Z,13.87
2017-03-30T01:26:03.807Z,13.88
2017-03-30T01:27:12.717Z,13.9
2017-03-30T01:28:21.984Z,13.88
2017-03-30T01:29:30.630Z,13.95
2017-03-30T01:30:39.197Z,13.93
2017-03-30T01:31:48.091Z,13.94
2017-03-30T01:32:56.979Z,13.97
2017-03-30T01:34:06.185Z,13.97
2017-03-30T01:35:15.071Z,13.91
2017-03-30T01:36:23.738Z,13.97
2017-03-30T01:37:32.875Z,13.9
2017-03-30T01:38:41.536Z,13.88
2017-03-30T01:39:50.569Z,13.91
2017-03-30T01:40:59.776Z,13.94
2017-03-30T01:42:08.679Z,13.91
2017-03-30T01:43:17.576Z,13.95
2017-03-30T01:44:26.848Z,13.93
2017-03-30T01:45:36.055Z,13.91
2017-03-30T01:46:44.942Z,13.9
2017-03-30T01:47:54.474Z,13.94
2017-03-30T01:49:03.394Z,13.87
2017-03-30T01:50:12.277Z,13.9
2017-03-30T01:51:20.849Z,13.9
2017-03-30T01:52:29.522Z,13.88
2017-03-30T01:53:38.411Z,13.94
2017-03-30T01:54:47.296Z,13.86
2017-03-30T01:55:56.185Z,13.93
2017-03-30T01:57:05.108Z,13.88
2017-03-30T01:58:14.311Z,13.95
2017-03-30T01:59:23.527Z,13.86
2017-03-30T02:00:32.103Z,13.9
2017-03-30T02:01:41.001Z,13.88
2017-03-30T02:02:49.574Z,13.88
2017-03-30T02:03:59.408Z,13.83
2017-03-30T02:05:08.614Z,13.83
2017-03-30T02:06:17.502Z,13.81
2017-03-30T02:07:26.391Z,13.87
2017-03-30T02:08:35.282Z,13.87
2017-03-30T02:09:43.936Z,13.87
2017-03-30T02:10:52.510Z,13.83
2017-03-30T02:12:01.103Z,13.83
2017-03-30T02:13:09.725Z,13.86
2017-03-30T02:14:18.296Z,13.73
2017-03-30T02:15:27.179Z,13.73
2017-03-30T02:16:36.096Z,13.83
2017-03-30T02:17:45.303Z,13.78
2017-03-30T02:18:53.875Z,13.72
2017-03-30T02:20:03.092Z,13.76
2017-03-30T02:21:12.705Z,13.75
2017-03-30T02:22:21.908Z,13.79
2017-03-30T02:23:31.114Z,13.76
2017-03-30T02:24:40.121Z,13.73
2017-03-30T02:25:48.695Z,13.83
2017-03-30T02:26:57.898Z,13.75
2017-03-30T02:28:06.839Z,13.72
2017-03-30T02:29:15.784Z,13.73
2017-03-30T02:30:24.669Z,13.72
2017-03-30T02:31:33.563Z,13.75
2017-03-30T02:32:42.897Z,13.69
2017-03-30T02:33:52.107Z,13.76
2017-03-30T02:35:01.325Z,13.73
2017-03-30T02:36:09.899Z,13.75
2017-03-30T02:37:18.793Z,13.69
2017-03-30T02:38:27.681Z,13.75
2017-03-30T02:39:36.250Z,13.68
2017-03-30T02:40:44.869Z,13.81
2017-03-30T02:41:53.453Z,13.68
2017-03-30T02:43:02.463Z,13.72
2017-03-30T02:44:11.360Z,13.65
2017-03-30T02:45:20.249Z,13.63
2017-03-30T02:46:29.143Z,13.68
2017-03-30T02:47:37.714Z,13.65
2017-03-30T02:48:46.611Z,13.76
2017-03-30T02:49:55.882Z,13.63
2017-03-30T02:51:05.085Z,13.68
2017-03-30T02:52:13.974Z,13.78
2017-03-30T02:53:23.024Z,13.76
2017-03-30T02:54:31.640Z,13.75
2017-03-30T02:55:40.841Z,13.65
2017-03-30T02:56:49.826Z,13.66
2017-03-30T02:57:58.464Z,13.66
2017-03-30T02:59:07.351Z,13.6
2017-03-30T03:00:16.286Z,13.58
2017-03-30T03:01:24.892Z,13.65
2017-03-30T03:02:34.097Z,13.7
2017-03-30T03:03:43.299Z,13.63
2017-03-30T03:04:52.872Z,13.55
2017-03-30T03:06:02.122Z,13.62
2017-03-30T03:07:11.641Z,13.57
2017-03-30T03:08:20.552Z,13.63
2017-03-30T03:09:29.570Z,13.55
2017-03-30T03:10:38.532Z,13.54
2017-03-30T03:11:47.742Z,13.53
2017-03-30T03:12:56.677Z,13.48
2017-03-30T03:14:05.980Z,13.5
2017-03-30T03:15:14.564Z,13.39
2017-03-30T03:16:23.773Z,13.48
2017-03-30T03:17:32.358Z,13.47
2017-03-30T03:18:40.929Z,13.44
2017-03-30T03:19:49.500Z,13.35
2017-03-30T03:20:58.504Z,13.28
2017-03-30T03:22:07.083Z,13.21
2017-03-30T03:23:15.699Z,13.25
2017-03-30T03:24:24.616Z,13.31
2017-03-30T03:25:33.823Z,13.27
2017-03-30T03:26:42.399Z,13.27
2017-03-30T03:27:51.052Z,13.17
2017-03-30T03:28:59.633Z,13.21
2017-03-30T03:30:08.841Z,13.19
2017-03-30T03:31:17.499Z,13.17
2017-03-30T03:32:26.098Z,13.19
2017-03-30T03:33:34.672Z,13.19
2017-03-30T03:34:43.913Z,13.13
2017-03-30T03:35:52.810Z,13.06
2017-03-30T03:37:01.383Z,13.1
2017-03-30T03:38:10.609Z,13.11
2017-03-30T03:39:19.249Z,13.07
2017-03-30T03:40:28.137Z,12.96
2017-03-30T03:41:36.711Z,12.95
2017-03-30T03:42:45.636Z,12.94
2017-03-30T03:43:54.856Z,12.86
2017-03-30T03:45:04.161Z,12.77
2017-03-30T03:46:13.707Z,12.77
2017-03-30T03:47:22.599Z,12.76
2017-03-30T03:48:31.489Z,12.7
2017-03-30T03:49:40.376Z,12.7
2017-03-30T03:50:48.953Z,12.71
2017-03-30T03:51:57.529Z,12.61
2017-03-30T03:53:06.107Z,12.59
2017-03-30T03:54:15.040Z,12.62
2017-03-30T03:55:24.242Z,12.53
2017-03-30T03:56:33.226Z,12.56
2017-03-30T03:57:41.869Z,12.56
2017-03-30T03:58:50.439Z,12.55
2017-03-30T03:59:59.007Z,12.55
2017-03-30T04:01:08.214Z,12.52
2017-03-30T04:02:16.839Z,12.45
2017-03-30T04:03:25.411Z,12.4
2017-03-30T04:04:33.984Z,12.37
2017-03-30T04:05:42.559Z,12.4
2017-03-30T04:06:51.137Z,12.44
2017-03-30T04:08:00.026Z,12.41
2017-03-30T04:09:08.936Z,12.44
2017-03-30T04:10:17.825Z,12.4
2017-03-30T04:11:26.713Z,12.38
2017-03-30T04:12:35.596Z,12.44
2017-03-30T04:13:44.796Z,12.36
2017-03-30T04:14:53.375Z,12.37
2017-03-30T04:16:02.624Z,12.41
2017-03-30T04:17:11.839Z,12.36
2017-03-30T04:18:21.126Z,12.36
2017-03-30T04:19:29.701Z,12.34
2017-03-30T04:20:38.590Z,12.33
2017-03-30T04:21:47.478Z,12.26
2017-03-30T04:22:56.369Z,12.29
2017-03-30T04:24:05.258Z,12.34
2017-03-30T04:25:14.471Z,12.31
2017-03-30T04:26:23.369Z,12.36
2017-03-30T04:27:31.942Z,12.36
2017-03-30T04:28:40.833Z,12.33
2017-03-30T04:29:49.405Z,12.44
2017-03-30T04:30:58.628Z,12.41
2017-03-30T04:32:07.201Z,12.41
2017-03-30T04:33:16.088Z,12.47
2017-03-30T04:34:24.658Z,12.45
2017-03-30T04:35:33.543Z,12.43
2017-03-30T04:36:42.125Z,12.4
2017-03-30T04:37:50.697Z,12.52
2017-03-30T04:38:59.897Z,12.4
2017-03-30T04:40:09.108Z,12.62
2017-03-30T04:41:18.321Z,12.48
2017-03-30T04:42:27.536Z,12.55
2017-03-30T04:43:36.741Z,12.59
2017-03-30T04:44:46.253Z,12.55
2017-03-30T04:45:55.143Z,12.52
2017-03-30T04:47:03.758Z,12.58
2017-03-30T04:48:12.331Z,12.69
2017-03-30T04:49:20.909Z,12.65
2017-03-30T04:50:30.477Z,12.61
2017-03-30T04:51:39.680Z,12.63
2017-03-30T04:52:48.567Z,12.63
2017-03-30T04:53:57.456Z,12.62
2017-03-30T04:55:06.405Z,12.65
2017-03-30T04:56:15.568Z,12.69
2017-03-30T04:57:24.452Z,12.69
2017-03-30T04:58:33.343Z,12.66
2017-03-30T04:59:42.231Z,12.71
2017-03-30T05:00:51.118Z,12.74
2017-03-30T05:02:00.254Z,12.74
2017-03-30T05:03:09.146Z,12.65
2017-03-30T05:04:18.349Z,12.76
2017-03-30T05:05:27.235Z,12.77
2017-03-30T05:06:35.851Z,12.69
2017-03-30T05:07:44.740Z,12.61
2017-03-30T05:08:53.314Z,12.71
2017-03-30T05:10:03.157Z,12.7
2017-03-30T05:11:12.374Z,12.71
2017-03-30T05:12:21.578Z,12.63
2017-03-30T05:13:30.671Z,12.74
2017-03-30T05:14:39.398Z,12.76
2017-03-30T05:15:48.605Z,12.7
2017-03-30T05:16:57.493Z,12.73
2017-03-30T05:18:06.067Z,12.74
2017-03-30T05:19:14.956Z,12.74
2017-03-30T05:20:23.842Z,12.73
2017-03-30T05:21:32.735Z,12.69
2017-03-30T05:22:41.622Z,12.71
2017-03-30T05:23:50.823Z,12.74
2017-03-30T05:24:59.717Z,12.73
2017-03-30T05:26:08.923Z,12.7
2017-03-30T05:27:17.495Z,12.76
2017-03-30T05:28:26.067Z,12.77
2017-03-30T05:29:34.972Z,12.77
2017-03-30T05:30:44.495Z,12.8
2017-03-30T05:31:53.125Z,12.78
2017-03-30T05:33:01.726Z,12.78
2017-03-30T05:34:10.346Z,12.8
2017-03-30T05:35:19.891Z,12.74
2017-03-30T05:36:28.632Z,12.8
2017-03-30T05:37:37.521Z,12.76
2017-03-30T05:38:46.097Z,12.78
2017-03-30T05:39:55.648Z,12.91
2017-03-30T05:41:04.726Z,12.81
2017-03-30T05:42:13.704Z,12.91
2017-03-30T05:43:22.618Z,12.84
2017-03-30T05:44:31.193Z,12.91
2017-03-30T05:45:39.923Z,12.81
2017-03-30T05:46:48.811Z,12.91
2017-03-30T05:47:57.697Z,12.92
2017-03-30T05:49:06.594Z,12.94
2017-03-30T05:50:15.414Z,12.94
2017-03-30T05:51:24.021Z,12.98
2017-03-30T05:52:32.912Z,12.96
2017-03-30T05:53:42.114Z,12.98
2017-03-30T05:54:51.002Z,12.98
2017-03-30T05:55:59.894Z,13.01
2017-03-30T05:57:09.102Z,13.01
2017-03-30T05:58:17.991Z,13.01
2017-03-30T05:59:26.571Z,13.07
2017-03-30T06:00:35.461Z,13.17
2017-03-30T06:01:44.345Z,13.09
2017-03-30T06:02:53.547Z,13.11
2017-03-30T06:04:02.429Z,13.19
2017-03-30T06:05:11.002Z,13.16
2017-03-30T06:06:20.219Z,13.19
2017-03-30T06:07:29.437Z,13.14
2017-03-30T06:08:38.009Z,13.13
2017-03-30T06:09:47.214Z,13.14
2017-03-30T06:10:56.097Z,13.25
2017-03-30T06:12:05.302Z,13.28
2017-03-30T06:13:14.199Z,13.28
2017-03-30T06:14:23.099Z,13.31
2017-03-30T06:15:32.300Z,13.39
2017-03-30T06:16:41.756Z,13.39
2017-03-30T06:17:50.646Z,13.48
2017-03-30T06:18:59.539Z,13.48
2017-03-30T06:20:08.435Z,13.53
2017-03-30T06:21:17.324Z,13.58
2017-03-30T06:22:25.895Z,13.6
2017-03-30T06:23:34.474Z,13.6
2017-03-30T06:24:43.048Z,13.65
2017-03-30T06:25:51.618Z,13.62
2017-03-30T06:27:00.439Z,13.62
2017-03-30T06:28:09.338Z,13.78
2017-03-30T06:29:17.923Z,13.75
2017-03-30T06:30:26.814Z,13.76
2017-03-30T06:31:35.384Z,13.86
2017-03-30T06:32:43.957Z,13.87
2017-03-30T06:33:52.847Z,13.87
2017-03-30T06:35:02.077Z,14.02
2017-03-30T06:36:10.861Z,14.01
2017-03-30T06:37:20.166Z,14.03
2017-03-30T06:38:29.148Z,14.15
2017-03-30T06:39:38.073Z,14.12
2017-03-30T06:40:47.368Z,14.15
2017-03-30T06:41:56.378Z,14.23
2017-03-30T06:43:05.274Z,14.21
2017-03-30T06:44:13.846Z,14.23
2017-03-30T06:45:22.426Z,14.24
2017-03-30T06:46:31.317Z,14.31
2017-03-30T06:47:40.533Z,14.38
2017-03-30T06:48:49.111Z,14.44
2017-03-30T06:49:57.999Z,14.48
2017-03-30T06:51:06.574Z,14.49
2017-03-30T06:52:15.150Z,14.53
2017-03-30T06:53:24.042Z,14.51
2017-03-30T06:54:32.943Z,14.51
2017-03-30T06:55:42.154Z,14.53
2017-03-30T06:56:51.360Z,14.61
2017-03-30T06:58:00.945Z,14.63
2017-03-30T06:59:10.813Z,14.57
2017-03-30T07:00:19.709Z,14.61
2017-03-30T07:01:28.287Z,14.67
2017-03-30T07:02:37.490Z,14.64
2017-03-30T07:03:46.699Z,14.67
2017-03-30T07:04:55.935Z,14.61
2017-03-30T07:06:04.536Z,14.7
2017-03-30T07:07:13.433Z,14.77
2017-03-30T07:08:22.838Z,14.79
2017-03-30T07:09:31.563Z,14.83
2017-03-30T07:10:40.629Z,14.85
2017-03-30T07:11:49.241Z,14.87
2017-03-30T07:12:57.815Z,14.93
2017-03-30T07:14:07.028Z,15.02
2017-03-30T07:15:16.239Z,14.98
2017-03-30T07:16:24.821Z,15.05
2017-03-30T07:17:34.334Z,15.02
2017-03-30T07:18:42.932Z,15.07
2017-03-30T07:19:52.143Z,15.1
2017-03-30T07:21:01.054Z,15.16
2017-03-30T07:22:11.495Z,15.05
2017-03-30T07:23:22.426Z,15.12
2017-03-30T07:24:31.890Z,15.22
2017-03-30T07:25:41.147Z,15.27
2017-03-30T07:26:50.119Z,15.38
2017-03-30T07:34:05.468Z,15.55
2017-03-30T07:35:16.284Z,15.6
2017-03-30T07:36:25.196Z,15.6
2017-03-30T07:37:34.419Z,15.7
2017-03-30T07:38:43.632Z,15.68
2017-03-30T07:39:52.557Z,15.65
2017-03-30T07:41:01.144Z,15.77
2017-03-30T07:42:10.044Z,15.81
2017-03-30T07:43:18.623Z,15.84
2017-03-30T07:44:27.402Z,15.92
2017-03-30T07:45:36.541Z,16.1
2017-03-30T07:46:45.436Z,16.21
2017-03-30T07:47:54.388Z,16.34
2017-03-30T07:49:03.935Z,16.45
2017-03-30T07:50:12.912Z,16.48
2017-03-30T07:51:21.563Z,16.67
2017-03-30T07:52:30.140Z,16.66
2017-03-30T07:53:38.857Z,16.85
2017-03-30T07:54:47.563Z,16.87
2017-03-30T07:55:57.131Z,16.97
2017-03-30T07:57:06.145Z,16.92
2017-03-30T07:58:14.732Z,16.95
2017-03-30T07:59:23.306Z,16.97
2017-03-30T08:00:32.194Z,16.91
2017-03-30T08:01:41.088Z,16.87
2017-03-30T08:02:49.981Z,16.84
2017-03-30T08:03:59.194Z,16.84
2017-03-30T08:05:07.773Z,16.88
2017-03-30T08:06:17.003Z,16.76
2017-03-30T08:07:26.220Z,16.82
2017-03-30T08:08:35.119Z,16.77
2017-03-30T08:09:44.177Z,16.76
2017-03-30T08:10:53.077Z,16.74
2017-03-30T08:12:01.652Z,16.76
2017-03-30T08:13:10.547Z,16.84
2017-03-30T08:14:19.125Z,16.84
2017-03-30T08:15:28.346Z,16.99
2017-03-30T08:16:37.178Z,17.02
2017-03-30T08:17:46.075Z,17.07
2017-03-30T08:18:54.664Z,17.17
2017-03-30T08:20:03.570Z,17.3
2017-03-30T08:21:12.154Z,17.46
2017-03-30T08:22:21.049Z,17.63
2017-03-30T08:23:29.628Z,17.6
2017-03-30T08:24:38.836Z,17.73
2017-03-30T08:25:47.419Z,17.8
2017-03-30T08:26:55.999Z,17.83
2017-03-30T08:28:05.140Z,17.88
2017-03-30T08:29:14.223Z,17.92
2017-03-30T08:30:23.679Z,17.95
2017-03-30T08:31:32.730Z,18.02
2017-03-30T08:32:41.629Z,18.01
2017-03-30T08:33:50.523Z,18.13
2017-03-30T08:34:59.417Z,18.13
2017-03-30T08:36:08.321Z,18.13
2017-03-30T08:37:16.902Z,18.29
2017-03-30T08:38:26.049Z,18.16
2017-03-30T08:39:35.268Z,18.13
2017-03-30T08:40:44.584Z,18.16
2017-03-30T08:41:53.881Z,18.16
2017-03-30T08:43:02.787Z,18.26
2017-03-30T08:44:11.371Z,18.16
2017-03-30T08:45:20.282Z,18.27
2017-03-30T08:46:29.192Z,18.27
2017-03-30T08:47:38.834Z,18.26
2017-03-30T08:48:47.739Z,18.26
2017-03-30T08:49:56.645Z,18.24
2017-03-30T08:51:05.584Z,18.26
2017-03-30T08:52:14.808Z,18.29
2017-03-30T08:53:24.102Z,18.38
2017-03-30T08:54:32.681Z,18.35
2017-03-30T08:55:41.283Z,18.35
2017-03-30T08:56:50.507Z,18.36
2017-03-30T08:57:59.722Z,18.39
2017-03-30T08:59:08.309Z,18.31
2017-03-30T09:00:17.520Z,18.35
2017-03-30T09:01:27.402Z,18.36
2017-03-30T09:02:36.930Z,18.42
2017-03-30T09:03:45.824Z,18.47
2017-03-30T09:04:54.723Z,18.49
2017-03-30T09:06:03.305Z,18.54
2017-03-30T09:07:11.889Z,18.66
2017-03-30T09:08:20.801Z,18.66
2017-03-30T09:09:29.712Z,18.78
2017-03-30T09:10:38.626Z,18.81
2017-03-30T09:11:47.533Z,18.82
2017-03-30T09:12:56.122Z,18.93
2017-03-30T09:14:05.021Z,18.93
2017-03-30T09:15:13.927Z,18.9
2017-03-30T09:16:22.827Z,19
2017-03-30T09:17:31.407Z,18.9
2017-03-30T09:18:40.627Z,18.91
2017-03-30T09:19:49.840Z,18.87
2017-03-30T09:20:59.103Z,18.87
2017-03-30T09:22:08.006Z,18.79
2017-03-30T09:23:16.941Z,18.75
2017-03-30T09:24:25.517Z,18.69
2017-03-30T09:25:34.732Z,18.71
2017-03-30T09:26:43.792Z,18.81
2017-03-30T09:27:53.004Z,18.78
2017-03-30T09:29:02.226Z,18.76
2017-03-30T09:30:10.812Z,18.71
2017-03-30T09:31:19.707Z,18.81
2017-03-30T09:32:28.609Z,18.75
2017-03-30T09:33:37.187Z,18.86
2017-03-30T09:34:45.769Z,18.79
2017-03-30T09:35:54.987Z,18.9
2017-03-30T09:37:03.882Z,19
2017-03-30T09:38:12.462Z,18.91
2017-03-30T09:39:21.051Z,18.91
2017-03-30T09:40:30.267Z,18.93
2017-03-30T09:41:39.171Z,18.94
2017-03-30T09:42:48.077Z,18.9
2017-03-30T09:43:56.981Z,18.89
2017-03-30T09:45:06.443Z,18.82
2017-03-30T09:46:15.340Z,18.9
2017-03-30T09:47:24.251Z,18.81
2017-03-30T09:48:33.469Z,18.87
2017-03-30T09:49:42.396Z,18.81
2017-03-30T09:50:50.979Z,18.9
2017-03-30T09:51:59.569Z,18.9
2017-03-30T09:53:08.817Z,18.91
2017-03-30T09:54:17.889Z,19.1
2017-03-30T09:55:26.742Z,19.1
2017-03-30T09:56:35.340Z,19.17
2017-03-30T09:57:44.207Z,19.17
2017-03-30T09:58:53.454Z,19.28
2017-03-30T10:00:02.078Z,19.34
2017-03-30T10:01:11.382Z,19.46
2017-03-30T10:02:20.748Z,19.49
2017-03-30T10:03:29.324Z,19.57
2017-03-30T10:04:38.856Z,19.63
2017-03-30T10:05:48.103Z,19.72
2017-03-30T10:06:57.003Z,19.75
2017-03-30T10:08:06.219Z,19.72
2017-03-30T10:09:15.486Z,19.87
2017-03-30T10:10:24.388Z,19.83
2017-03-30T10:11:33.282Z,19.9
2017-03-30T10:12:42.182Z,19.97
2017-03-30T10:13:51.094Z,19.95
2017-03-30T10:14:59.695Z,19.97
2017-03-30T10:16:08.286Z,19.97
2017-03-30T10:17:17.018Z,20.01
2017-03-30T10:18:25.602Z,20.05
2017-03-30T10:19:34.197Z,19.93
2017-03-30T10:20:43.418Z,19.93
2017-03-30T10:21:52.671Z,20.01
2017-03-30T10:23:01.251Z,19.98
2017-03-30T10:24:10.175Z,20
2017-03-30T10:25:18.791Z,19.98
2017-03-30T10:26:27.373Z,19.93
2017-03-30T10:27:36.269Z,20
2017-03-30T10:28:45.162Z,20.1
2017-03-30T10:29:53.745Z,20.1
2017-03-30T10:31:02.326Z,20.15
2017-03-30T10:32:10.902Z,20.18
2017-03-30T10:33:20.112Z,20.26
2017-03-30T10:34:29.334Z,20.29
2017-03-30T10:35:38.544Z,20.27
2017-03-30T10:36:47.120Z,20.25
2017-03-30T10:37:55.701Z,20.38
2017-03-30T10:39:04.612Z,20.38
2017-03-30T10:40:13.194Z,20.4
2017-03-30T10:41:22.090Z,20.49
2017-03-30T10:42:30.673Z,20.56
2017-03-30T10:43:39.893Z,20.49
2017-03-30T10:44:48.784Z,20.56
2017-03-30T10:45:58.316Z,20.64
2017-03-30T10:47:06.906Z,20.63
2017-03-30T10:48:16.124Z,20.6
2017-03-30T10:49:25.023Z,20.68
2017-03-30T10:50:33.921Z,20.66
2017-03-30T10:51:42.826Z,20.76
2017-03-30T10:52:51.724Z,20.71
2017-03-30T10:54:00.629Z,20.72
2017-03-30T10:55:09.844Z,20.76
2017-03-30T10:56:18.744Z,20.78
2017-03-30T10:57:27.962Z,20.78
2017-03-30T10:58:37.491Z,20.78
2017-03-30T10:59:46.395Z,20.81
2017-03-30T11:00:55.348Z,20.85
2017-03-30T11:02:03.936Z,20.91
2017-03-30T11:03:13.159Z,20.91
2017-03-30T11:04:21.793Z,20.94
2017-03-30T11:05:30.694Z,20.97
2017-03-30T11:06:39.592Z,21
2017-03-30T11:07:48.499Z,20.97
2017-03-30T11:08:57.719Z,20.98
2017-03-30T11:10:06.937Z,20.94
2017-03-30T11:11:16.134Z,20.98
2017-03-30T11:12:25.034Z,21.03
2017-03-30T11:13:33.615Z,21.06
2017-03-30T11:14:42.211Z,21.06
2017-03-30T11:15:50.802Z,21.09
2017-03-30T11:17:00.016Z,21.06
2017-03-30T11:18:08.914Z,21.13
2017-03-30T11:19:17.818Z,21.13
2017-03-30T11:20:26.724Z,21.22
2017-03-30T11:21:35.946Z,21.23
2017-03-30T11:22:44.904Z,21.25
2017-03-30T11:23:53.886Z,21.25
2017-03-30T11:25:02.983Z,21.3
2017-03-30T11:26:11.878Z,21.36
2017-03-30T11:27:21.112Z,21.45
2017-03-30T11:28:29.739Z,21.3
2017-03-30T11:29:38.936Z,21.37
2017-03-30T11:30:47.842Z,21.31
2017-03-30T11:31:57.072Z,21.4
2017-03-30T11:33:06.046Z,21.46
2017-03-30T11:34:14.645Z,21.45
2017-03-30T11:35:23.572Z,21.48
2017-03-30T11:36:32.946Z,21.52
2017-03-30T11:37:42.105Z,21.56
2017-03-30T11:38:51.468Z,21.51
2017-03-30T11:40:00.087Z,21.55
2017-03-30T11:41:09.782Z,21.59
2017-03-30T11:42:18.798Z,21.66
2017-03-30T11:43:28.131Z,21.58
2017-03-30T11:44:37.456Z,21.58
2017-03-30T11:45:46.689Z,21.58
2017-03-30T11:46:56.072Z,21.56
2017-03-30T11:48:05.299Z,21.67
2017-03-30T11:49:15.128Z,21.7
2017-03-30T11:50:24.349Z,21.66
2017-03-30T11:51:33.248Z,21.77
2017-03-30T11:52:42.482Z,21.64
2017-03-30T11:53:51.069Z,21.8
2017-03-30T11:54:59.980Z,21.82
2017-03-30T11:56:08.883Z,21.78
2017-03-30T11:57:17.463Z,21.8
2017-03-30T11:58:26.674Z,21.83
2017-03-30T11:59:35.655Z,21.83
2017-03-30T12:00:44.564Z,21.9
2017-03-30T12:01:53.774Z,21.92
2017-03-30T12:03:02.673Z,21.86
2017-03-30T12:04:11.586Z,21.83
2017-03-30T12:05:20.488Z,21.86
2017-03-30T12:06:29.706Z,21.92
2017-03-30T12:07:38.615Z,21.89
2017-03-30T12:08:47.202Z,21.92
2017-03-30T12:09:56.105Z,21.92
2017-03-30T12:11:04.688Z,21.9
2017-03-30T12:12:13.593Z,21.85
2017-03-30T12:13:22.809Z,21.96
2017-03-30T12:14:31.711Z,21.89
2017-03-30T12:15:40.296Z,21.9
2017-03-30T12:16:48.878Z,21.96
2017-03-30T12:17:58.087Z,21.97
2017-03-30T12:19:06.985Z,22.07
2017-03-30T12:20:16.202Z,22.02
2017-03-30T12:21:25.416Z,22.04
2017-03-30T12:22:34.630Z,21.97
2017-03-30T12:23:43.526Z,22.05
2017-03-30T12:24:52.430Z,21.99
2017-03-30T12:26:01.955Z,22.02
2017-03-30T12:27:11.500Z,22.04
2017-03-30T12:28:20.404Z,22.04
2017-03-30T12:29:29.345Z,22.15
2017-03-30T12:30:38.559Z,22.05
2017-03-30T12:31:47.166Z,22.12
2017-03-30T12:32:56.112Z,22.15
2017-03-30T12:34:05.325Z,22.09
2017-03-30T12:35:14.539Z,22.15
2017-03-30T12:36:23.122Z,22.12
2017-03-30T12:37:32.023Z,22.23
2017-03-30T12:38:40.922Z,22.18
2017-03-30T12:39:50.070Z,22.26
2017-03-30T12:40:59.606Z,22.27
2017-03-30T12:42:08.524Z,22.27
2017-03-30T12:43:17.106Z,22.23
2017-03-30T12:44:26.004Z,22.22
2017-03-30T12:45:34.593Z,22.26
2017-03-30T12:46:43.811Z,22.2
2017-03-30T12:47:52.710Z,22.29
2017-03-30T12:49:01.608Z,22.31
2017-03-30T12:50:10.820Z,22.34
2017-03-30T12:51:19.754Z,22.33
2017-03-30T12:52:28.349Z,22.34
2017-03-30T12:53:37.579Z,22.29
2017-03-30T12:54:46.167Z,22.39
2017-03-30T12:55:54.776Z,22.41
2017-03-30T12:57:04.009Z,22.39
2017-03-30T12:58:13.612Z,22.38
2017-03-30T12:59:23.143Z,22.39
2017-03-30T13:00:32.044Z,22.39
2017-03-30T13:01:40.985Z,22.45
2017-03-30T13:02:50.104Z,22.42
2017-03-30T13:03:58.687Z,22.41
2017-03-30T13:05:07.906Z,22.41
2017-03-30T13:06:16.804Z,22.41
2017-03-30T13:07:25.742Z,22.45
2017-03-30T13:08:34.641Z,22.51
2017-03-30T13:09:43.218Z,22.51
2017-03-30T13:10:52.121Z,22.46
2017-03-30T13:12:01.016Z,22.48
2017-03-30T13:13:10.233Z,22.48
2017-03-30T13:14:18.834Z,22.49
2017-03-30T13:15:28.047Z,22.52
2017-03-30T13:16:37.908Z,22.52
2017-03-30T13:17:46.871Z,22.54
2017-03-30T13:18:55.462Z,22.55
2017-03-30T13:20:04.057Z,22.57
2017-03-30T13:21:12.649Z,22.54
2017-03-30T13:22:21.623Z,22.55
2017-03-30T13:23:30.521Z,22.6
2017-03-30T13:24:39.107Z,22.59
2017-03-30T13:25:48.955Z,22.64
2017-03-30T13:26:57.542Z,22.63
2017-03-30T13:28:06.445Z,22.63
2017-03-30T13:29:15.030Z,22.66
2017-03-30T13:30:23.615Z,22.64
2017-03-30T13:31:32.830Z,22.64
2017-03-30T13:32:41.415Z,22.67
2017-03-30T13:33:50.003Z,22.67
2017-03-30T13:34:58.591Z,22.7
2017-03-30T13:36:07.433Z,22.67
2017-03-30T13:37:16.017Z,22.76
2017-03-30T13:38:24.917Z,22.79
2017-03-30T13:39:33.818Z,22.79
2017-03-30T13:40:42.396Z,22.73
2017-03-30T13:41:50.989Z,22.79
2017-03-30T13:43:00.220Z,22.71
2017-03-30T13:44:08.827Z,22.71
2017-03-30T13:45:17.465Z,22.75
2017-03-30T13:46:27.003Z,22.75
2017-03-30T13:47:35.589Z,22.76
2017-03-30T13:48:44.493Z,22.7
2017-03-30T13:49:53.396Z,22.76
2017-03-30T13:51:02.294Z,22.79
2017-03-30T13:52:10.887Z,22.76
2017-03-30T13:53:19.469Z,22.79
2017-03-30T13:54:28.366Z,22.86
2017-03-30T13:55:36.949Z,22.79
2017-03-30T13:56:45.529Z,22.81
2017-03-30T13:57:54.124Z,22.75
2017-03-30T13:59:03.024Z,22.79
2017-03-30T14:00:11.999Z,22.79
2017-03-30T14:01:20.590Z,22.97
2017-03-30T14:02:29.169Z,22.81
2017-03-30T14:03:38.095Z,22.81
2017-03-30T14:04:47.625Z,22.85
2017-03-30T14:05:56.522Z,22.81
2017-03-30T14:07:05.109Z,22.85
2017-03-30T14:08:14.037Z,22.79
2017-03-30T14:09:23.285Z,22.79
2017-03-30T14:10:32.249Z,22.81
2017-03-30T14:11:41.165Z,22.82
2017-03-30T14:12:49.752Z,22.85
2017-03-30T14:13:58.537Z,22.86
2017-03-30T14:15:07.793Z,22.82
2017-03-30T14:16:16.700Z,22.86
2017-03-30T14:17:25.300Z,22.84
2017-03-30T14:18:35.292Z,22.96
2017-03-30T14:19:44.517Z,22.96
2017-03-30T14:20:53.742Z,22.92
2017-03-30T14:22:03.279Z,22.96
2017-03-30T14:23:11.864Z,22.96
2017-03-30T14:24:21.080Z,22.94
2017-03-30T14:25:30.026Z,22.92
2017-03-30T14:26:39.767Z,22.97
2017-03-30T14:27:48.994Z,22.97
2017-03-30T14:28:57.925Z,22.97
2017-03-30T14:30:06.591Z,22.99
2017-03-30T14:31:15.928Z,23.01
2017-03-30T14:32:24.809Z,22.97
2017-03-30T14:33:33.501Z,22.94
2017-03-30T14:34:42.612Z,22.94
2017-03-30T14:35:51.763Z,23.01
2017-03-30T14:37:00.348Z,22.97
2017-03-30T14:38:09.576Z,22.96
2017-03-30T14:39:18.163Z,23
2017-03-30T14:40:27.388Z,23
2017-03-30T14:41:36.317Z,23.03
2017-03-30T14:42:44.898Z,23.04
2017-03-30T14:43:53.794Z,22.97
2017-03-30T14:45:03.327Z,23.01
2017-03-30T14:46:12.640Z,23.04
2017-03-30T14:47:21.536Z,23.1
2017-03-30T14:48:30.459Z,23.12
2017-03-30T14:49:39.748Z,23.04
2017-03-30T14:50:48.967Z,23.07
2017-03-30T14:51:57.659Z,23.15
2017-03-30T14:53:06.501Z,23.07
2017-03-30T14:54:15.085Z,23.04
2017-03-30T14:55:23.681Z,23.15
2017-03-30T14:56:32.643Z,23.1
2017-03-30T14:57:42.088Z,23.09